Airfield :
LOGIN :

Register | Disclaimer

   EN    FR    IT 

 










Legend :    VFR   Marginal VFR   IFR   Intensive IFR   Very Intensive IFR
Visi :
Ceiling :
>= 8 km
>= 3000ft
5 to 8 km
1000 to 3000 ft
1500m to 5 km
500 to 1000 ft
800 to 1500m
200 to 500 ft
< 800m
< 200 ft
Symbols :   Thunderstorms  Fog  Heavy snow  Heavy precipitations  Wind > 20 kt
SIGMETs :     Misc.  Thunderstorms  Icing  Turbulence  Mountain Waves  Volcanic Ashes







- Airport Elevation : 200 ft


EBBL - Klein Brogel AB

CURRENT METAR :
  • 181455Z AUTO VRB01KT 1000 FG OVC002/// M00/M01 Q1020 AMB

EXPIRED METARs :
  • 181433Z AUTO 15003KT 0600 FG OVC002/// M01/M01 Q1020 RED
  • 181355Z AUTO 19003KT 0400 FG OVC002/// M01/M01 Q1020 RED
  • 181325Z AUTO 15003KT 0500 FZFG OVC002/// M01/M01 Q1020 RED
  • 181321Z 15003KT 0200 FZFG VV002 M01/M01 Q1020 RED FCST CANCEL
  • 181255Z 17003KT 0200 FZFG VV002 M01/M01 Q1020 RED RED
  • 181225Z 19004KT 0200 FZFG VV002 M01/M01 Q1021 RED RED

TAF TAF EBBL
Valid from the 18 at 13:00 until the 18 at 22:00 UTC


181141Z 1813/1822 17005KT 0500 FG SCT002
PROB30
TEMPO 1815/1818 1000 BR
No reported NOTAMs for that airfield.



MET'MAP, your aeronautical weather chart ! - Copyright ORBIFLY December 2007 - Disclaimer

ORBIFLY MET'MAP TEAM :

Programming & Development : Alexandra Zaïnal
Concept & Development : Baudouin d'Aumeries
Co-Development & Prog : Marc-Olivier Méhu
Technical & hardware support : Manuel Goepfert

Contact : metmap@orbifly.com




SOURCES & CREDITS :

   NOAA